首页
METAR-TAF:

METAR-TAF

机场 :

卡斯塔莫努, 土耳其

纬度: 41-19-01N, 经度: 33-47-46E, 海拔: 1073米

METAR: 丢失

时间: 04:05 (01:05 UTC)

预报

该预报发布于11小时和25分钟前的13:40 UTC
预报有效从31日的 15点(UTC)到 31日的 24点(UTC)
风速2节,风向多变
能见度10公里或以上
散云层高于3300英尺
短暂存在
从 31日的 15点(UTC)到 31日的 17点(UTC)
风速12节,风向
少量云层高于2400英尺, 积雨云.
多云层高于3000英尺
多云层高于8000英尺
雷暴, 小雨

TAF: LTAL 311340Z 3115/3124 VRB02KT 9999 SCT033 TEMPO 3115/3117 01012KT -TSRA FEW024CB BKN030 BKN080

超过4000个机场的气象观测和天气预报(METAR&TAF报告)。

可查询的气象台以黄色和红色小点在地图上表示。

将鼠标移到小点上方,可查看气象台名称。

然后点击查看天气观测和预报。

如需切换地图:点击带黑十字的绿色按钮放大地图;点击带横线的绿色按钮缩小地图;或者点击绿色箭头查看邻近地区的地图。


METAR-TAF: